sensor_id;sensor_type;location;lat;lon;timestamp;P1;durP1;ratioP1;P2;durP2;ratioP2
65581;SDS011;52231;40.090;18.348;2024-03-23T00:55:15;61.38;;;25.08;;
65581;SDS011;52231;40.090;18.348;2024-03-23T00:58:01;51.42;;;23.90;;
65581;SDS011;52231;40.090;18.348;2024-03-23T01:00:28;48.60;;;23.60;;
65581;SDS011;52231;40.090;18.348;2024-03-23T01:02:54;48.75;;;24.35;;
65581;SDS011;52231;40.090;18.348;2024-03-23T01:05:22;48.97;;;22.90;;
65581;SDS011;52231;40.090;18.348;2024-03-23T01:07:49;51.45;;;22.98;;
65581;SDS011;52231;40.090;18.348;2024-03-23T01:10:16;50.08;;;22.60;;
65581;SDS011;52231;40.090;18.348;2024-03-23T01:12:43;48.83;;;22.63;;
65581;SDS011;52231;40.090;18.348;2024-03-23T01:15:10;58.22;;;23.20;;
65581;SDS011;52231;40.090;18.348;2024-03-23T01:17:37;78.18;;;25.05;;
65581;SDS011;52231;40.090;18.348;2024-03-23T01:20:04;75.82;;;28.40;;
65581;SDS011;52231;40.090;18.348;2024-03-23T01:22:32;76.45;;;28.27;;
65581;SDS011;52231;40.090;18.348;2024-03-23T01:24:59;79.68;;;32.10;;
65581;SDS011;52231;40.090;18.348;2024-03-23T01:27:26;74.75;;;32.15;;
65581;SDS011;52231;40.090;18.348;2024-03-23T01:29:53;79.78;;;32.92;;
65581;SDS011;52231;40.090;18.348;2024-03-23T01:32:20;70.25;;;31.35;;
65581;SDS011;52231;40.090;18.348;2024-03-23T01:34:47;77.25;;;29.85;;
65581;SDS011;52231;40.090;18.348;2024-03-23T01:37:14;74.18;;;28.80;;
65581;SDS011;52231;40.090;18.348;2024-03-23T01:39:41;67.75;;;29.70;;
65581;SDS011;52231;40.090;18.348;2024-03-23T01:42:08;67.63;;;29.17;;
65581;SDS011;52231;40.090;18.348;2024-03-23T01:44:35;70.07;;;29.33;;
65581;SDS011;52231;40.090;18.348;2024-03-23T01:47:02;68.65;;;29.63;;
65581;SDS011;52231;40.090;18.348;2024-03-23T01:49:30;67.75;;;28.00;;
65581;SDS011;52231;40.090;18.348;2024-03-23T01:51:57;66.63;;;28.67;;
65581;SDS011;52231;40.090;18.348;2024-03-23T01:54:24;66.68;;;27.15;;
65581;SDS011;52231;40.090;18.348;2024-03-23T01:56:52;71.95;;;28.15;;
65581;SDS011;52231;40.090;18.348;2024-03-23T01:59:20;66.85;;;27.67;;
65581;SDS011;52231;40.090;18.348;2024-03-23T02:01:47;62.58;;;24.92;;
65581;SDS011;52231;40.090;18.348;2024-03-23T02:04:14;66.47;;;26.63;;
65581;SDS011;52231;40.090;18.348;2024-03-23T02:06:41;62.55;;;26.42;;
65581;SDS011;52231;40.090;18.348;2024-03-23T02:09:08;63.38;;;25.63;;
65581;SDS011;52231;40.090;18.348;2024-03-23T02:11:35;75.45;;;26.48;;
65581;SDS011;52231;40.090;18.348;2024-03-23T02:14:02;62.20;;;24.48;;
65581;SDS011;52231;40.090;18.348;2024-03-23T02:16:29;66.75;;;24.67;;
65581;SDS011;52231;40.090;18.348;2024-03-23T02:18:56;69.20;;;23.95;;
65581;SDS011;52231;40.090;18.348;2024-03-23T02:21:23;72.05;;;26.30;;
65581;SDS011;52231;40.090;18.348;2024-03-23T02:23:50;74.78;;;26.02;;
65581;SDS011;52231;40.090;18.348;2024-03-23T02:26:17;72.68;;;25.33;;
65581;SDS011;52231;40.090;18.348;2024-03-23T02:28:44;74.40;;;24.23;;
65581;SDS011;52231;40.090;18.348;2024-03-23T02:31:11;74.18;;;25.65;;
65581;SDS011;52231;40.090;18.348;2024-03-23T02:33:39;66.93;;;22.08;;
65581;SDS011;52231;40.090;18.348;2024-03-23T02:36:06;98.47;;;22.45;;
65581;SDS011;52231;40.090;18.348;2024-03-23T02:38:33;80.03;;;22.88;;
65581;SDS011;52231;40.090;18.348;2024-03-23T02:41:03;75.43;;;23.20;;
65581;SDS011;52231;40.090;18.348;2024-03-23T02:43:30;110.05;;;23.63;;
65581;SDS011;52231;40.090;18.348;2024-03-23T02:45:57;73.00;;;17.83;;
65581;SDS011;52231;40.090;18.348;2024-03-23T02:48:24;73.88;;;19.20;;
65581;SDS011;52231;40.090;18.348;2024-03-23T02:50:51;83.47;;;17.02;;
65581;SDS011;52231;40.090;18.348;2024-03-23T02:53:36;83.00;;;18.85;;
65581;SDS011;52231;40.090;18.348;2024-03-23T02:56:03;86.60;;;17.73;;
65581;SDS011;52231;40.090;18.348;2024-03-23T02:58:30;97.82;;;17.48;;
65581;SDS011;52231;40.090;18.348;2024-03-23T03:00:58;83.63;;;16.30;;
65581;SDS011;52231;40.090;18.348;2024-03-23T03:03:24;69.15;;;15.40;;
65581;SDS011;52231;40.090;18.348;2024-03-23T03:05:55;77.85;;;15.07;;
65581;SDS011;52231;40.090;18.348;2024-03-23T03:08:22;69.03;;;15.55;;
65581;SDS011;52231;40.090;18.348;2024-03-23T03:10:49;74.78;;;14.25;;
65581;SDS011;52231;40.090;18.348;2024-03-23T03:13:17;77.07;;;13.73;;
65581;SDS011;52231;40.090;18.348;2024-03-23T03:15:44;78.38;;;13.80;;
65581;SDS011;52231;40.090;18.348;2024-03-23T03:18:11;69.80;;;13.13;;
65581;SDS011;52231;40.090;18.348;2024-03-23T03:20:38;48.47;;;13.57;;
65581;SDS011;52231;40.090;18.348;2024-03-23T03:23:06;78.95;;;14.15;;
65581;SDS011;52231;40.090;18.348;2024-03-23T03:25:33;105.95;;;15.43;;
65581;SDS011;52231;40.090;18.348;2024-03-23T03:28:01;83.20;;;14.40;;
65581;SDS011;52231;40.090;18.348;2024-03-23T03:30:28;85.55;;;15.15;;
65581;SDS011;52231;40.090;18.348;2024-03-23T03:32:55;95.22;;;17.23;;
65581;SDS011;52231;40.090;18.348;2024-03-23T03:35:22;78.30;;;17.05;;
65581;SDS011;52231;40.090;18.348;2024-03-23T03:37:48;92.68;;;19.65;;
65581;SDS011;52231;40.090;18.348;2024-03-23T03:40:15;92.28;;;22.52;;
65581;SDS011;52231;40.090;18.348;2024-03-23T03:42:42;74.05;;;18.20;;
65581;SDS011;52231;40.090;18.348;2024-03-23T03:45:10;66.78;;;18.10;;
65581;SDS011;52231;40.090;18.348;2024-03-23T03:47:37;58.30;;;16.52;;
65581;SDS011;52231;40.090;18.348;2024-03-23T03:50:04;109.13;;;18.50;;
65581;SDS011;52231;40.090;18.348;2024-03-23T03:52:32;97.22;;;21.98;;
65581;SDS011;52231;40.090;18.348;2024-03-23T03:55:02;85.15;;;23.38;;
65581;SDS011;52231;40.090;18.348;2024-03-23T03:57:29;73.20;;;20.42;;
65581;SDS011;52231;40.090;18.348;2024-03-23T03:59:56;94.10;;;22.50;;
65581;SDS011;52231;40.090;18.348;2024-03-23T04:02:23;90.25;;;20.25;;
65581;SDS011;52231;40.090;18.348;2024-03-23T04:04:50;89.80;;;19.17;;
65581;SDS011;52231;40.090;18.348;2024-03-23T04:07:17;113.15;;;24.27;;
65581;SDS011;52231;40.090;18.348;2024-03-23T04:09:44;84.63;;;19.77;;
65581;SDS011;52231;40.090;18.348;2024-03-23T04:12:11;122.18;;;19.60;;
65581;SDS011;52231;40.090;18.348;2024-03-23T04:14:38;90.80;;;18.65;;
65581;SDS011;52231;40.090;18.348;2024-03-23T04:17:06;66.70;;;17.50;;
65581;SDS011;52231;40.090;18.348;2024-03-23T04:19:33;69.47;;;19.02;;
65581;SDS011;52231;40.090;18.348;2024-03-23T04:21:59;52.65;;;16.33;;
65581;SDS011;52231;40.090;18.348;2024-03-23T04:24:26;54.35;;;17.42;;
65581;SDS011;52231;40.090;18.348;2024-03-23T04:26:54;70.70;;;17.75;;
65581;SDS011;52231;40.090;18.348;2024-03-23T04:29:21;63.10;;;15.52;;
65581;SDS011;52231;40.090;18.348;2024-03-23T04:31:48;62.70;;;17.48;;
65581;SDS011;52231;40.090;18.348;2024-03-23T04:34:33;50.85;;;15.98;;
65581;SDS011;52231;40.090;18.348;2024-03-23T04:37:00;71.80;;;15.20;;
65581;SDS011;52231;40.090;18.348;2024-03-23T04:39:27;38.10;;;13.43;;
65581;SDS011;52231;40.090;18.348;2024-03-23T04:41:54;60.88;;;13.30;;
65581;SDS011;52231;40.090;18.348;2024-03-23T04:44:21;83.88;;;15.52;;
65581;SDS011;52231;40.090;18.348;2024-03-23T04:46:48;58.08;;;15.05;;
65581;SDS011;52231;40.090;18.348;2024-03-23T04:49:16;75.88;;;15.80;;
65581;SDS011;52231;40.090;18.348;2024-03-23T04:51:43;67.70;;;16.60;;
65581;SDS011;52231;40.090;18.348;2024-03-23T04:54:12;84.13;;;18.05;;
65581;SDS011;52231;40.090;18.348;2024-03-23T04:56:39;67.13;;;17.35;;
65581;SDS011;52231;40.090;18.348;2024-03-23T04:59:06;56.53;;;17.15;;
65581;SDS011;52231;40.090;18.348;2024-03-23T05:01:33;57.92;;;16.92;;
65581;SDS011;52231;40.090;18.348;2024-03-23T05:04:02;42.85;;;15.32;;
65581;SDS011;52231;40.090;18.348;2024-03-23T05:06:29;45.60;;;14.98;;
65581;SDS011;52231;40.090;18.348;2024-03-23T05:08:56;56.58;;;14.43;;
65581;SDS011;52231;40.090;18.348;2024-03-23T05:11:23;52.80;;;14.38;;
65581;SDS011;52231;40.090;18.348;2024-03-23T05:13:50;49.83;;;15.00;;
65581;SDS011;52231;40.090;18.348;2024-03-23T05:16:17;58.08;;;15.50;;
65581;SDS011;52231;40.090;18.348;2024-03-23T05:18:44;42.17;;;14.88;;
65581;SDS011;52231;40.090;18.348;2024-03-23T05:21:11;44.90;;;14.38;;
65581;SDS011;52231;40.090;18.348;2024-03-23T05:23:38;37.10;;;14.07;;
65581;SDS011;52231;40.090;18.348;2024-03-23T05:26:05;40.80;;;12.93;;
65581;SDS011;52231;40.090;18.348;2024-03-23T05:28:32;37.30;;;12.13;;
65581;SDS011;52231;40.090;18.348;2024-03-23T05:30:59;47.15;;;13.23;;
65581;SDS011;52231;40.090;18.348;2024-03-23T05:33:26;48.65;;;12.70;;
65581;SDS011;52231;40.090;18.348;2024-03-23T05:35:57;43.70;;;13.82;;
65581;SDS011;52231;40.090;18.348;2024-03-23T05:38:24;36.47;;;12.82;;
65581;SDS011;52231;40.090;18.348;2024-03-23T05:40:55;31.20;;;10.40;;
65581;SDS011;52231;40.090;18.348;2024-03-23T05:43:23;33.00;;;9.57;;
65581;SDS011;52231;40.090;18.348;2024-03-23T05:45:57;17.00;;;8.20;;
65581;SDS011;52231;40.090;18.348;2024-03-23T05:48:26;18.02;;;8.23;;
65581;SDS011;52231;40.090;18.348;2024-03-23T05:50:54;25.95;;;8.40;;
65581;SDS011;52231;40.090;18.348;2024-03-23T05:53:21;26.80;;;9.05;;
65581;SDS011;52231;40.090;18.348;2024-03-23T05:55:48;20.77;;;8.95;;
65581;SDS011;52231;40.090;18.348;2024-03-23T05:58:15;20.55;;;8.68;;
65581;SDS011;52231;40.090;18.348;2024-03-23T06:00:44;19.95;;;8.98;;
65581;SDS011;52231;40.090;18.348;2024-03-23T06:03:11;25.30;;;9.25;;
65581;SDS011;52231;40.090;18.348;2024-03-23T06:05:38;24.73;;;7.65;;
65581;SDS011;52231;40.090;18.348;2024-03-23T06:08:05;24.15;;;7.57;;
65581;SDS011;52231;40.090;18.348;2024-03-23T06:10:35;22.25;;;7.53;;
65581;SDS011;52231;40.090;18.348;2024-03-23T06:13:02;32.78;;;8.18;;
65581;SDS011;52231;40.090;18.348;2024-03-23T06:15:30;23.48;;;8.90;;
65581;SDS011;52231;40.090;18.348;2024-03-23T06:17:57;22.23;;;8.48;;
65581;SDS011;52231;40.090;18.348;2024-03-23T06:20:24;22.98;;;10.02;;
65581;SDS011;52231;40.090;18.348;2024-03-23T06:22:52;18.20;;;8.32;;
65581;SDS011;52231;40.090;18.348;2024-03-23T06:25:19;27.38;;;8.35;;
65581;SDS011;52231;40.090;18.348;2024-03-23T06:27:46;32.60;;;8.50;;
65581;SDS011;52231;40.090;18.348;2024-03-23T06:30:13;23.38;;;8.57;;
65581;SDS011;52231;40.090;18.348;2024-03-23T06:32:40;18.17;;;8.00;;
65581;SDS011;52231;40.090;18.348;2024-03-23T06:35:07;23.60;;;8.15;;
65581;SDS011;52231;40.090;18.348;2024-03-23T06:37:35;18.58;;;7.70;;
65581;SDS011;52231;40.090;18.348;2024-03-23T06:40:03;17.85;;;8.25;;
65581;SDS011;52231;40.090;18.348;2024-03-23T06:42:33;22.17;;;7.93;;
65581;SDS011;52231;40.090;18.348;2024-03-23T06:45:00;24.45;;;8.95;;
65581;SDS011;52231;40.090;18.348;2024-03-23T06:47:27;21.35;;;9.63;;
65581;SDS011;52231;40.090;18.348;2024-03-23T06:49:54;32.15;;;7.63;;
65581;SDS011;52231;40.090;18.348;2024-03-23T06:52:21;36.40;;;7.50;;
65581;SDS011;52231;40.090;18.348;2024-03-23T06:54:48;24.05;;;7.32;;
65581;SDS011;52231;40.090;18.348;2024-03-23T06:57:15;22.90;;;8.35;;
65581;SDS011;52231;40.090;18.348;2024-03-23T06:59:41;21.15;;;7.20;;
65581;SDS011;52231;40.090;18.348;2024-03-23T07:02:09;21.33;;;8.27;;
65581;SDS011;52231;40.090;18.348;2024-03-23T07:04:36;19.08;;;7.43;;
65581;SDS011;52231;40.090;18.348;2024-03-23T07:07:05;19.95;;;8.77;;
65581;SDS011;52231;40.090;18.348;2024-03-23T07:09:32;17.77;;;9.35;;
65581;SDS011;52231;40.090;18.348;2024-03-23T07:11:59;23.38;;;10.75;;
65581;SDS011;52231;40.090;18.348;2024-03-23T07:14:27;18.52;;;9.85;;
65581;SDS011;52231;40.090;18.348;2024-03-23T07:16:54;18.55;;;10.10;;
65581;SDS011;52231;40.090;18.348;2024-03-23T07:19:21;18.52;;;9.27;;
65581;SDS011;52231;40.090;18.348;2024-03-23T07:21:48;22.92;;;11.90;;
65581;SDS011;52231;40.090;18.348;2024-03-23T07:24:15;23.38;;;13.45;;
65581;SDS011;52231;40.090;18.348;2024-03-23T07:26:42;17.58;;;11.25;;
65581;SDS011;52231;40.090;18.348;2024-03-23T07:29:10;21.75;;;12.07;;
65581;SDS011;52231;40.090;18.348;2024-03-23T07:31:38;19.25;;;11.52;;
65581;SDS011;52231;40.090;18.348;2024-03-23T07:34:05;22.35;;;10.80;;
65581;SDS011;52231;40.090;18.348;2024-03-23T07:36:32;20.52;;;11.32;;
65581;SDS011;52231;40.090;18.348;2024-03-23T07:38:59;19.88;;;11.27;;
65581;SDS011;52231;40.090;18.348;2024-03-23T07:41:27;20.13;;;8.45;;
65581;SDS011;52231;40.090;18.348;2024-03-23T07:43:54;18.30;;;9.05;;
65581;SDS011;52231;40.090;18.348;2024-03-23T07:46:21;16.67;;;8.05;;
65581;SDS011;52231;40.090;18.348;2024-03-23T07:48:48;13.43;;;7.70;;
65581;SDS011;52231;40.090;18.348;2024-03-23T07:51:20;16.92;;;7.95;;
65581;SDS011;52231;40.090;18.348;2024-03-23T07:53:49;17.20;;;6.82;;
65581;SDS011;52231;40.090;18.348;2024-03-23T07:56:16;11.25;;;5.10;;
65581;SDS011;52231;40.090;18.348;2024-03-23T07:58:45;11.73;;;5.47;;
65581;SDS011;52231;40.090;18.348;2024-03-23T08:01:12;10.55;;;4.00;;
65581;SDS011;52231;40.090;18.348;2024-03-23T08:03:41;11.55;;;4.40;;
65581;SDS011;52231;40.090;18.348;2024-03-23T08:06:19;9.90;;;4.10;;
65581;SDS011;52231;40.090;18.348;2024-03-23T08:08:55;9.93;;;3.83;;
65581;SDS011;52231;40.090;18.348;2024-03-23T08:11:29;9.77;;;3.67;;
65581;SDS011;52231;40.090;18.348;2024-03-23T08:13:58;10.13;;;3.83;;
65581;SDS011;52231;40.090;18.348;2024-03-23T08:16:25;8.15;;;3.58;;
65581;SDS011;52231;40.090;18.348;2024-03-23T08:18:52;11.90;;;4.10;;
65581;SDS011;52231;40.090;18.348;2024-03-23T08:21:19;9.20;;;3.78;;
65581;SDS011;52231;40.090;18.348;2024-03-23T08:23:47;8.85;;;3.65;;
65581;SDS011;52231;40.090;18.348;2024-03-23T08:26:15;9.23;;;3.88;;
65581;SDS011;52231;40.090;18.348;2024-03-23T08:28:44;9.20;;;3.72;;
65581;SDS011;52231;40.090;18.348;2024-03-23T08:31:12;9.55;;;3.75;;
65581;SDS011;52231;40.090;18.348;2024-03-23T08:33:39;10.40;;;3.85;;
65581;SDS011;52231;40.090;18.348;2024-03-23T08:36:09;7.88;;;3.53;;
65581;SDS011;52231;40.090;18.348;2024-03-23T08:38:38;10.05;;;4.00;;
65581;SDS011;52231;40.090;18.348;2024-03-23T08:41:09;11.73;;;3.88;;
65581;SDS011;52231;40.090;18.348;2024-03-23T08:43:38;9.85;;;4.10;;
65581;SDS011;52231;40.090;18.348;2024-03-23T08:46:06;16.45;;;4.20;;
65581;SDS011;52231;40.090;18.348;2024-03-23T08:48:35;12.38;;;4.10;;
65581;SDS011;52231;40.090;18.348;2024-03-23T08:51:03;8.95;;;4.20;;
65581;SDS011;52231;40.090;18.348;2024-03-23T08:53:31;8.23;;;4.15;;
65581;SDS011;52231;40.090;18.348;2024-03-23T08:55:59;9.77;;;3.92;;
65581;SDS011;52231;40.090;18.348;2024-03-23T08:58:30;11.48;;;4.95;;
65581;SDS011;52231;40.090;18.348;2024-03-23T09:01:08;11.65;;;4.20;;
65581;SDS011;52231;40.090;18.348;2024-03-23T09:03:36;7.32;;;3.60;;
65581;SDS011;52231;40.090;18.348;2024-03-23T09:06:07;10.65;;;3.60;;
65581;SDS011;52231;40.090;18.348;2024-03-23T09:08:35;8.73;;;4.13;;
65581;SDS011;52231;40.090;18.348;2024-03-23T09:11:05;9.55;;;3.92;;
65581;SDS011;52231;40.090;18.348;2024-03-23T09:13:33;8.15;;;3.50;;
65581;SDS011;52231;40.090;18.348;2024-03-23T09:16:04;8.75;;;3.80;;
65581;SDS011;52231;40.090;18.348;2024-03-23T09:18:32;7.95;;;3.85;;
65581;SDS011;52231;40.090;18.348;2024-03-23T09:21:00;7.97;;;3.58;;
65581;SDS011;52231;40.090;18.348;2024-03-23T09:23:27;9.02;;;3.78;;
65581;SDS011;52231;40.090;18.348;2024-03-23T09:25:54;7.60;;;3.33;;
65581;SDS011;52231;40.090;18.348;2024-03-23T09:28:21;10.35;;;3.50;;
65581;SDS011;52231;40.090;18.348;2024-03-23T09:30:48;10.10;;;3.80;;
65581;SDS011;52231;40.090;18.348;2024-03-23T09:33:15;7.93;;;3.45;;
65581;SDS011;52231;40.090;18.348;2024-03-23T09:35:43;10.07;;;3.55;;
65581;SDS011;52231;40.090;18.348;2024-03-23T09:38:14;7.75;;;3.90;;
65581;SDS011;52231;40.090;18.348;2024-03-23T09:40:41;9.02;;;3.88;;
65581;SDS011;52231;40.090;18.348;2024-03-23T09:43:09;9.55;;;3.63;;
65581;SDS011;52231;40.090;18.348;2024-03-23T09:45:39;10.13;;;3.72;;
65581;SDS011;52231;40.090;18.348;2024-03-23T09:48:08;9.10;;;4.10;;
65581;SDS011;52231;40.090;18.348;2024-03-23T09:50:39;7.95;;;3.78;;
65581;SDS011;52231;40.090;18.348;2024-03-23T09:53:07;10.15;;;4.00;;
65581;SDS011;52231;40.090;18.348;2024-03-23T09:55:35;13.98;;;3.80;;
65581;SDS011;52231;40.090;18.348;2024-03-23T09:58:02;8.88;;;4.10;;
65581;SDS011;52231;40.090;18.348;2024-03-23T10:00:31;10.90;;;3.90;;
65581;SDS011;52231;40.090;18.348;2024-03-23T10:03:01;11.45;;;3.95;;
65581;SDS011;52231;40.090;18.348;2024-03-23T10:05:29;9.43;;;3.60;;
65581;SDS011;52231;40.090;18.348;2024-03-23T10:10:42;9.32;;;4.07;;
65581;SDS011;52231;40.090;18.348;2024-03-23T10:13:09;7.60;;;3.47;;
65581;SDS011;52231;40.090;18.348;2024-03-23T10:15:40;11.68;;;4.20;;
65581;SDS011;52231;40.090;18.348;2024-03-23T10:18:19;9.52;;;3.50;;
65581;SDS011;52231;40.090;18.348;2024-03-23T10:20:50;10.55;;;3.70;;
65581;SDS011;52231;40.090;18.348;2024-03-23T10:23:38;8.50;;;3.40;;
65581;SDS011;52231;40.090;18.348;2024-03-23T10:26:25;8.60;;;3.35;;
65581;SDS011;52231;40.090;18.348;2024-03-23T10:29:00;11.55;;;3.85;;
65581;SDS011;52231;40.090;18.348;2024-03-23T10:31:28;7.10;;;3.45;;
65581;SDS011;52231;40.090;18.348;2024-03-23T10:33:56;8.60;;;3.47;;
65581;SDS011;52231;40.090;18.348;2024-03-23T10:36:24;11.70;;;3.55;;
65581;SDS011;52231;40.090;18.348;2024-03-23T10:38:54;8.85;;;3.30;;
65581;SDS011;52231;40.090;18.348;2024-03-23T10:41:21;11.65;;;3.75;;
65581;SDS011;52231;40.090;18.348;2024-03-23T10:43:49;11.32;;;4.32;;
65581;SDS011;52231;40.090;18.348;2024-03-23T10:46:16;8.20;;;3.70;;
65581;SDS011;52231;40.090;18.348;2024-03-23T10:48:43;8.85;;;3.72;;
65581;SDS011;52231;40.090;18.348;2024-03-23T10:51:10;13.80;;;4.22;;
65581;SDS011;52231;40.090;18.348;2024-03-23T10:53:38;9.27;;;3.38;;
65581;SDS011;52231;40.090;18.348;2024-03-23T10:56:06;8.48;;;3.50;;
65581;SDS011;52231;40.090;18.348;2024-03-23T10:58:37;7.95;;;3.53;;
65581;SDS011;52231;40.090;18.348;2024-03-23T11:01:06;8.48;;;4.00;;
65581;SDS011;52231;40.090;18.348;2024-03-23T11:03:37;8.20;;;3.90;;
65581;SDS011;52231;40.090;18.348;2024-03-23T11:06:05;10.27;;;3.90;;
65581;SDS011;52231;40.090;18.348;2024-03-23T11:08:33;12.50;;;3.80;;
65581;SDS011;52231;40.090;18.348;2024-03-23T11:11:11;8.18;;;3.40;;
65581;SDS011;52231;40.090;18.348;2024-03-23T11:13:41;9.07;;;4.35;;
65581;SDS011;52231;40.090;18.348;2024-03-23T11:16:15;9.23;;;3.78;;
65581;SDS011;52231;40.090;18.348;2024-03-23T11:22:01;7.93;;;3.40;;
65581;SDS011;52231;40.090;18.348;2024-03-23T11:24:29;10.80;;;3.60;;
65581;SDS011;52231;40.090;18.348;2024-03-23T11:26:56;11.90;;;4.00;;
65581;SDS011;52231;40.090;18.348;2024-03-23T11:29:30;10.95;;;4.10;;
65581;SDS011;52231;40.090;18.348;2024-03-23T11:31:57;10.88;;;4.45;;
65581;SDS011;52231;40.090;18.348;2024-03-23T11:34:25;10.68;;;4.53;;
65581;SDS011;52231;40.090;18.348;2024-03-23T11:36:56;9.05;;;3.65;;
65581;SDS011;52231;40.090;18.348;2024-03-23T11:39:31;9.80;;;3.83;;
65581;SDS011;52231;40.090;18.348;2024-03-23T11:41:57;8.98;;;4.03;;
65581;SDS011;52231;40.090;18.348;2024-03-23T11:44:25;11.25;;;4.28;;
65581;SDS011;52231;40.090;18.348;2024-03-23T11:46:53;9.45;;;4.25;;
65581;SDS011;52231;40.090;18.348;2024-03-23T11:49:20;8.73;;;4.13;;
65581;SDS011;52231;40.090;18.348;2024-03-23T11:51:48;10.55;;;4.35;;
65581;SDS011;52231;40.090;18.348;2024-03-23T11:54:15;9.88;;;4.55;;
65581;SDS011;52231;40.090;18.348;2024-03-23T11:59:39;10.88;;;4.97;;
65581;SDS011;52231;40.090;18.348;2024-03-23T12:04:41;7.82;;;4.05;;
65581;SDS011;52231;40.090;18.348;2024-03-23T12:07:20;8.60;;;3.97;;
65581;SDS011;52231;40.090;18.348;2024-03-23T12:10:06;7.85;;;3.67;;
65581;SDS011;52231;40.090;18.348;2024-03-23T12:12:34;13.20;;;4.63;;
65581;SDS011;52231;40.090;18.348;2024-03-23T12:15:02;8.90;;;4.80;;
65581;SDS011;52231;40.090;18.348;2024-03-23T12:19:56;8.93;;;4.00;;
65581;SDS011;52231;40.090;18.348;2024-03-23T12:22:23;9.68;;;3.45;;
65581;SDS011;52231;40.090;18.348;2024-03-23T12:24:51;7.43;;;3.55;;
65581;SDS011;52231;40.090;18.348;2024-03-23T12:27:18;9.30;;;3.95;;
65581;SDS011;52231;40.090;18.348;2024-03-23T12:29:45;8.52;;;3.67;;
65581;SDS011;52231;40.090;18.348;2024-03-23T12:32:13;8.38;;;4.00;;
65581;SDS011;52231;40.090;18.348;2024-03-23T12:34:41;11.18;;;4.53;;
65581;SDS011;52231;40.090;18.348;2024-03-23T12:37:08;8.85;;;4.05;;
65581;SDS011;52231;40.090;18.348;2024-03-23T12:39:35;10.07;;;4.30;;
65581;SDS011;52231;40.090;18.348;2024-03-23T12:42:03;8.35;;;3.50;;
65581;SDS011;52231;40.090;18.348;2024-03-23T12:44:30;10.77;;;4.15;;
65581;SDS011;52231;40.090;18.348;2024-03-23T12:46:58;7.22;;;3.45;;
65581;SDS011;52231;40.090;18.348;2024-03-23T12:49:25;8.50;;;3.95;;
65581;SDS011;52231;40.090;18.348;2024-03-23T12:51:55;7.60;;;3.67;;
65581;SDS011;52231;40.090;18.348;2024-03-23T12:54:23;9.02;;;4.40;;
65581;SDS011;52231;40.090;18.348;2024-03-23T12:56:51;8.40;;;3.42;;
65581;SDS011;52231;40.090;18.348;2024-03-23T12:59:18;11.48;;;4.60;;
65581;SDS011;52231;40.090;18.348;2024-03-23T13:01:45;10.68;;;4.93;;
65581;SDS011;52231;40.090;18.348;2024-03-23T13:04:12;11.07;;;4.13;;
65581;SDS011;52231;40.090;18.348;2024-03-23T13:06:39;8.45;;;3.75;;
65581;SDS011;52231;40.090;18.348;2024-03-23T13:09:06;9.95;;;4.65;;
65581;SDS011;52231;40.090;18.348;2024-03-23T13:11:51;8.88;;;4.10;;
65581;SDS011;52231;40.090;18.348;2024-03-23T13:14:18;11.88;;;4.28;;
65581;SDS011;52231;40.090;18.348;2024-03-23T13:16:47;8.63;;;4.05;;
65581;SDS011;52231;40.090;18.348;2024-03-23T13:19:13;11.70;;;3.80;;
65581;SDS011;52231;40.090;18.348;2024-03-23T13:21:41;7.07;;;3.45;;
65581;SDS011;52231;40.090;18.348;2024-03-23T13:24:08;9.55;;;4.80;;
65581;SDS011;52231;40.090;18.348;2024-03-23T13:26:35;9.45;;;4.25;;
65581;SDS011;52231;40.090;18.348;2024-03-23T13:29:03;8.15;;;3.60;;
65581;SDS011;52231;40.090;18.348;2024-03-23T13:31:30;9.82;;;4.00;;
65581;SDS011;52231;40.090;18.348;2024-03-23T13:33:57;8.07;;;4.05;;
65581;SDS011;52231;40.090;18.348;2024-03-23T13:36:24;7.65;;;3.50;;
65581;SDS011;52231;40.090;18.348;2024-03-23T13:38:51;7.82;;;3.63;;
65581;SDS011;52231;40.090;18.348;2024-03-23T13:41:19;10.32;;;4.20;;
65581;SDS011;52231;40.090;18.348;2024-03-23T13:43:46;8.82;;;3.45;;
65581;SDS011;52231;40.090;18.348;2024-03-23T13:46:13;9.88;;;3.80;;
65581;SDS011;52231;40.090;18.348;2024-03-23T13:48:40;8.65;;;3.60;;
65581;SDS011;52231;40.090;18.348;2024-03-23T13:51:08;7.78;;;3.60;;
65581;SDS011;52231;40.090;18.348;2024-03-23T13:53:35;10.43;;;4.40;;
65581;SDS011;52231;40.090;18.348;2024-03-23T13:56:02;9.48;;;4.10;;
65581;SDS011;52231;40.090;18.348;2024-03-23T13:58:31;11.48;;;4.10;;
65581;SDS011;52231;40.090;18.348;2024-03-23T14:00:58;9.48;;;3.90;;
65581;SDS011;52231;40.090;18.348;2024-03-23T14:03:25;9.02;;;4.00;;
65581;SDS011;52231;40.090;18.348;2024-03-23T14:05:53;11.30;;;4.00;;
65581;SDS011;52231;40.090;18.348;2024-03-23T14:08:25;8.07;;;3.47;;
65581;SDS011;52231;40.090;18.348;2024-03-23T14:10:52;9.38;;;4.18;;
65581;SDS011;52231;40.090;18.348;2024-03-23T14:13:19;10.75;;;3.72;;
65581;SDS011;52231;40.090;18.348;2024-03-23T14:15:46;10.18;;;3.30;;
65581;SDS011;52231;40.090;18.348;2024-03-23T14:18:19;10.02;;;3.70;;
65581;SDS011;52231;40.090;18.348;2024-03-23T14:20:49;8.60;;;3.05;;
65581;SDS011;52231;40.090;18.348;2024-03-23T14:23:16;7.28;;;3.45;;
65581;SDS011;52231;40.090;18.348;2024-03-23T14:25:43;8.32;;;3.15;;
65581;SDS011;52231;40.090;18.348;2024-03-23T14:28:11;9.60;;;3.70;;
65581;SDS011;52231;40.090;18.348;2024-03-23T14:30:41;7.65;;;3.22;;
65581;SDS011;52231;40.090;18.348;2024-03-23T14:33:08;7.55;;;3.38;;
65581;SDS011;52231;40.090;18.348;2024-03-23T14:35:36;9.57;;;3.30;;
65581;SDS011;52231;40.090;18.348;2024-03-23T14:38:03;9.55;;;3.35;;
65581;SDS011;52231;40.090;18.348;2024-03-23T14:40:30;9.63;;;3.97;;
65581;SDS011;52231;40.090;18.348;2024-03-23T14:42:57;7.97;;;3.72;;
65581;SDS011;52231;40.090;18.348;2024-03-23T14:45:24;8.57;;;3.78;;
65581;SDS011;52231;40.090;18.348;2024-03-23T14:47:51;9.10;;;3.78;;
65581;SDS011;52231;40.090;18.348;2024-03-23T14:50:18;7.18;;;3.55;;
65581;SDS011;52231;40.090;18.348;2024-03-23T14:52:46;7.88;;;3.03;;
65581;SDS011;52231;40.090;18.348;2024-03-23T14:55:13;10.70;;;4.00;;
65581;SDS011;52231;40.090;18.348;2024-03-23T14:57:41;8.48;;;3.65;;
65581;SDS011;52231;40.090;18.348;2024-03-23T15:00:11;7.15;;;3.28;;
65581;SDS011;52231;40.090;18.348;2024-03-23T15:02:39;10.10;;;4.20;;
65581;SDS011;52231;40.090;18.348;2024-03-23T15:05:06;10.38;;;4.20;;
65581;SDS011;52231;40.090;18.348;2024-03-23T15:07:36;8.57;;;3.80;;
65581;SDS011;52231;40.090;18.348;2024-03-23T15:10:06;10.02;;;3.72;;
65581;SDS011;52231;40.090;18.348;2024-03-23T15:12:34;10.02;;;3.60;;
65581;SDS011;52231;40.090;18.348;2024-03-23T15:15:01;9.35;;;3.50;;
65581;SDS011;52231;40.090;18.348;2024-03-23T15:17:28;11.93;;;4.28;;
65581;SDS011;52231;40.090;18.348;2024-03-23T15:19:56;12.20;;;4.50;;
65581;SDS011;52231;40.090;18.348;2024-03-23T15:22:23;11.15;;;4.10;;
65581;SDS011;52231;40.090;18.348;2024-03-23T15:24:50;10.25;;;4.93;;
65581;SDS011;52231;40.090;18.348;2024-03-23T15:27:17;8.57;;;4.07;;
65581;SDS011;52231;40.090;18.348;2024-03-23T15:29:44;10.68;;;4.50;;
65581;SDS011;52231;40.090;18.348;2024-03-23T15:32:12;9.10;;;4.30;;
65581;SDS011;52231;40.090;18.348;2024-03-23T15:34:40;8.13;;;3.80;;